Time;durP1;ratioP1;P1;durP2;ratioP2;P2;SDS_P1;SDS_P2;PMS_P1;PMS_P2;Temp;Humidity;BMP_temperature;BMP_pressure;BME280_temperature;BME280_humidity;BME280_pressure;Samples;Min_cycle;Max_cycle;Signal;HPM_P1;HPM_P2
2023/06/15 00:01:16;;;;;;;3.27;2.97;;;;;;;;;;5119393;28;20225;-73
2023/06/15 00:03:45;;;;;;;4.47;3.13;;;;;;;;;;5119824;28;20214;-73
2023/06/15 00:06:13;;;;;;;4.60;3.23;;;;;;;;;;5119701;27;20327;-73
2023/06/15 00:08:41;;;;;;;3.80;3.33;;;;;;;;;;5115617;28;20210;-71
2023/06/15 00:11:11;;;;;;;3.67;2.60;;;;;;;;;;5119563;28;20198;-71
2023/06/15 00:13:39;;;;;;;5.60;2.90;;;;;;;;;;5119496;28;20211;-71
2023/06/15 00:16:07;;;;;;;6.03;3.27;;;;;;;;;;5119134;28;20225;-72
2023/06/15 00:18:37;;;;;;;3.43;2.67;;;;;;;;;;5118783;28;20208;-73
2023/06/15 00:21:08;;;;;;;3.87;3.47;;;;;;;;;;5119080;28;20624;-73
2023/06/15 00:23:36;;;;;;;3.73;2.73;;;;;;;;;;5119027;28;20233;-73
2023/06/15 00:26:04;;;;;;;4.67;3.23;;;;;;;;;;5118639;28;20221;-73
2023/06/15 00:28:34;;;;;;;4.97;2.93;;;;;;;;;;5118921;28;20213;-73
2023/06/15 00:31:02;;;;;;;3.73;2.90;;;;;;;;;;5119176;28;20201;-73
2023/06/15 00:33:30;;;;;;;3.10;2.90;;;;;;;;;;5118466;28;20214;-73
2023/06/15 00:35:59;;;;;;;3.10;2.80;;;;;;;;;;5118586;28;20246;-72
2023/06/15 00:38:27;;;;;;;7.03;3.17;;;;;;;;;;5119062;28;20292;-72
2023/06/15 00:40:55;;;;;;;4.87;3.10;;;;;;;;;;5119196;27;20277;-72
2023/06/15 00:43:24;;;;;;;3.57;2.97;;;;;;;;;;5118879;28;20775;-72
2023/06/15 00:45:53;;;;;;;6.17;3.30;;;;;;;;;;5118934;28;20228;-72
2023/06/15 00:48:21;;;;;;;5.50;3.80;;;;;;;;;;5118513;28;20669;-72
2023/06/15 00:50:50;;;;;;;4.10;3.50;;;;;;;;;;5118906;28;20207;-72
2023/06/15 00:53:18;;;;;;;4.37;3.00;;;;;;;;;;5118736;28;20234;-71
2023/06/15 00:55:47;;;;;;;3.87;3.43;;;;;;;;;;5118419;28;20755;-71
2023/06/15 00:58:16;;;;;;;3.93;2.90;;;;;;;;;;5107665;28;20201;-71
2023/06/15 01:00:48;;;;;;;3.63;3.17;;;;;;;;;;5118517;28;20572;-71
2023/06/15 01:03:20;;;;;;;3.40;3.20;;;;;;;;;;5118589;28;20212;-71
2023/06/15 01:05:48;;;;;;;4.40;3.03;;;;;;;;;;5118379;28;20225;-71
2023/06/15 01:08:17;;;;;;;3.30;2.97;;;;;;;;;;5118568;28;20288;-71
2023/06/15 01:10:45;;;;;;;4.17;3.23;;;;;;;;;;5118344;28;20682;-71
2023/06/15 01:13:13;;;;;;;4.13;3.20;;;;;;;;;;5118723;28;20210;-72
2023/06/15 01:15:41;;;;;;;6.03;3.37;;;;;;;;;;5118225;28;20302;-72
2023/06/15 01:18:10;;;;;;;4.80;3.50;;;;;;;;;;5118152;28;20320;-71
2023/06/15 01:20:40;;;;;;;3.60;3.30;;;;;;;;;;5118423;28;20216;-72
2023/06/15 01:23:18;;;;;;;3.97;3.03;;;;;;;;;;5118446;28;20289;-72
2023/06/15 01:25:59;;;;;;;3.07;2.77;;;;;;;;;;5118344;28;20278;-72
2023/06/15 01:28:30;;;;;;;3.40;3.10;;;;;;;;;;5118163;28;20210;-73
2023/06/15 01:30:58;;;;;;;4.27;2.90;;;;;;;;;;5118658;28;20651;-73
2023/06/15 01:33:27;;;;;;;4.27;3.33;;;;;;;;;;5118084;28;20216;-71
2023/06/15 01:35:55;;;;;;;5.23;3.47;;;;;;;;;;5118338;28;20224;-72
2023/06/15 01:38:24;;;;;;;4.63;3.07;;;;;;;;;;5119418;28;20204;-72
2023/06/15 01:40:53;;;;;;;3.30;3.00;;;;;;;;;;5122365;28;20205;-72
2023/06/15 01:43:23;;;;;;;4.17;3.77;;;;;;;;;;5122219;28;20295;-72
2023/06/15 01:45:52;;;;;;;5.37;3.47;;;;;;;;;;5122560;28;20225;-72
2023/06/15 01:48:21;;;;;;;5.43;3.63;;;;;;;;;;5122152;28;20200;-72
2023/06/15 01:50:50;;;;;;;3.80;3.47;;;;;;;;;;5122184;28;20218;-72
2023/06/15 01:53:18;;;;;;;3.53;3.10;;;;;;;;;;5122098;28;20315;-72
2023/06/15 01:55:46;;;;;;;5.87;2.90;;;;;;;;;;5122027;28;20228;-71
2023/06/15 01:58:15;;;;;;;3.80;3.23;;;;;;;;;;5122084;28;20264;-72
2023/06/15 02:00:45;;;;;;;4.47;3.50;;;;;;;;;;5122170;28;20208;-72
2023/06/15 02:03:13;;;;;;;3.20;3.00;;;;;;;;;;5121918;28;20224;-71
2023/06/15 02:05:42;;;;;;;4.43;3.47;;;;;;;;;;5122017;28;20254;-71
2023/06/15 02:08:10;;;;;;;3.90;3.10;;;;;;;;;;5122012;28;20234;-71
2023/06/15 02:10:39;;;;;;;3.40;3.10;;;;;;;;;;5121769;28;20640;-71
2023/06/15 02:13:08;;;;;;;6.13;3.57;;;;;;;;;;5121793;28;20690;-69
2023/06/15 02:15:36;;;;;;;3.43;3.07;;;;;;;;;;5121931;28;20256;-72
2023/06/15 02:18:11;;;;;;;3.87;3.27;;;;;;;;;;5121433;28;20232;-70
2023/06/15 02:20:41;;;;;;;5.00;3.13;;;;;;;;;;5121948;28;20296;-70
2023/06/15 02:23:10;;;;;;;5.97;3.73;;;;;;;;;;5121592;28;20221;-69
2023/06/15 02:25:39;;;;;;;3.87;3.47;;;;;;;;;;5121472;28;20688;-72
2023/06/15 02:28:07;;;;;;;6.77;3.90;;;;;;;;;;5121656;28;20209;-71
2023/06/15 02:30:35;;;;;;;4.03;3.33;;;;;;;;;;5121480;28;20213;-71
2023/06/15 02:33:05;;;;;;;4.90;3.10;;;;;;;;;;5121317;28;20279;-70
2023/06/15 02:35:35;;;;;;;5.33;4.00;;;;;;;;;;5121343;27;20232;-72
2023/06/15 02:38:03;;;;;;;3.67;3.30;;;;;;;;;;5121642;28;20205;-71
2023/06/15 02:40:31;;;;;;;5.03;3.40;;;;;;;;;;5121321;28;20290;-71
2023/06/15 02:43:00;;;;;;;5.23;3.73;;;;;;;;;;5121315;28;20235;-70
2023/06/15 02:45:28;;;;;;;6.77;3.73;;;;;;;;;;5121098;28;20230;-72
2023/06/15 02:47:57;;;;;;;4.07;3.60;;;;;;;;;;5121024;28;20216;-71
2023/06/15 02:50:25;;;;;;;7.63;3.50;;;;;;;;;;5120999;28;20260;-71
2023/06/15 02:52:55;;;;;;;4.30;3.70;;;;;;;;;;5120631;28;20638;-72
2023/06/15 02:55:24;;;;;;;7.50;3.40;;;;;;;;;;5121070;28;20252;-71
2023/06/15 02:57:53;;;;;;;5.63;4.07;;;;;;;;;;5118536;28;20257;-71
2023/06/15 03:00:23;;;;;;;3.77;3.47;;;;;;;;;;5112605;28;20247;-72
2023/06/15 03:02:52;;;;;;;4.43;3.50;;;;;;;;;;5120354;28;20592;-72
2023/06/15 03:05:20;;;;;;;4.30;3.30;;;;;;;;;;5121000;28;20230;-72
2023/06/15 03:07:48;;;;;;;4.20;3.27;;;;;;;;;;5120855;28;20293;-72
2023/06/15 03:10:18;;;;;;;7.73;3.67;;;;;;;;;;5120878;28;20229;-72
2023/06/15 03:12:46;;;;;;;6.33;3.40;;;;;;;;;;5120670;27;20216;-70
2023/06/15 03:15:14;;;;;;;4.97;3.60;;;;;;;;;;5120829;27;20229;-72
2023/06/15 03:17:43;;;;;;;5.57;3.43;;;;;;;;;;5106577;28;20309;-72
2023/06/15 03:20:12;;;;;;;4.27;3.60;;;;;;;;;;5120446;28;20568;-72
2023/06/15 03:22:42;;;;;;;3.90;3.50;;;;;;;;;;5120623;28;20230;-72
2023/06/15 03:25:11;;;;;;;4.43;3.70;;;;;;;;;;5120188;28;20214;-70
2023/06/15 03:27:42;;;;;;;6.77;4.20;;;;;;;;;;5120386;27;20270;-71
2023/06/15 03:30:11;;;;;;;6.40;3.97;;;;;;;;;;5120526;28;20202;-71
2023/06/15 03:32:40;;;;;;;8.43;4.27;;;;;;;;;;5120213;28;20210;-71
2023/06/15 03:35:09;;;;;;;5.90;4.90;;;;;;;;;;5120067;28;20626;-70
2023/06/15 03:37:37;;;;;;;7.90;4.47;;;;;;;;;;5120113;28;20668;-72
2023/06/15 03:40:06;;;;;;;5.07;4.03;;;;;;;;;;5120150;28;20234;-72
2023/06/15 03:42:34;;;;;;;5.70;4.23;;;;;;;;;;5120048;28;20291;-72
2023/06/15 03:45:04;;;;;;;5.17;3.93;;;;;;;;;;5119865;28;20681;-72
2023/06/15 03:47:32;;;;;;;9.67;3.83;;;;;;;;;;5119972;28;20219;-72
2023/06/15 03:50:01;;;;;;;5.60;4.10;;;;;;;;;;5119952;27;20211;-70
2023/06/15 03:52:32;;;;;;;6.97;4.13;;;;;;;;;;5119793;28;20212;-72
2023/06/15 03:55:00;;;;;;;8.77;3.67;;;;;;;;;;5119468;28;20258;-72
2023/06/15 03:57:28;;;;;;;5.17;4.43;;;;;;;;;;5119668;28;20270;-70
2023/06/15 03:59:57;;;;;;;6.83;4.63;;;;;;;;;;5119691;28;20230;-72
2023/06/15 04:02:26;;;;;;;6.97;4.07;;;;;;;;;;5118705;28;20295;-71
2023/06/15 04:04:56;;;;;;;8.53;3.93;;;;;;;;;;5119488;28;20208;-71
2023/06/15 04:07:25;;;;;;;9.83;4.33;;;;;;;;;;5119560;28;20217;-73
2023/06/15 04:09:53;;;;;;;4.93;4.23;;;;;;;;;;5126494;27;20216;-72
2023/06/15 04:12:22;;;;;;;8.50;3.90;;;;;;;;;;5119563;28;20215;-73
2023/06/15 04:14:51;;;;;;;6.37;4.03;;;;;;;;;;5119758;28;20211;-73
2023/06/15 04:17:19;;;;;;;9.57;4.83;;;;;;;;;;5119195;28;20359;-73
2023/06/15 04:19:49;;;;;;;5.50;4.00;;;;;;;;;;5119264;28;20698;-74
2023/06/15 04:22:19;;;;;;;5.87;4.00;;;;;;;;;;5119593;28;20254;-73
2023/06/15 04:24:48;;;;;;;4.70;3.90;;;;;;;;;;5119022;27;20215;-73
2023/06/15 04:27:19;;;;;;;5.17;3.47;;;;;;;;;;5119367;28;20208;-73
2023/06/15 04:29:49;;;;;;;6.50;4.30;;;;;;;;;;5119248;28;20201;-72
2023/06/15 04:32:18;;;;;;;8.07;4.23;;;;;;;;;;5118598;28;20233;-73
2023/06/15 04:34:46;;;;;;;7.77;4.60;;;;;;;;;;5117449;27;20197;-73
2023/06/15 04:37:16;;;;;;;6.90;4.73;;;;;;;;;;5119011;28;20221;-73
2023/06/15 04:39:45;;;;;;;8.57;4.47;;;;;;;;;;5119687;27;20569;-73
2023/06/15 04:42:13;;;;;;;6.87;4.47;;;;;;;;;;5120005;27;20205;-73
2023/06/15 04:44:41;;;;;;;7.80;4.80;;;;;;;;;;5120837;27;20309;-73
2023/06/15 04:47:09;;;;;;;6.70;4.80;;;;;;;;;;5118016;28;20584;-73
2023/06/15 04:49:37;;;;;;;7.90;4.63;;;;;;;;;;5118550;27;20198;-72
2023/06/15 04:52:09;;;;;;;7.03;5.10;;;;;;;;;;5119036;28;20203;-73
2023/06/15 04:54:39;;;;;;;8.67;4.80;;;;;;;;;;5119864;27;20303;-73
2023/06/15 04:57:08;;;;;;;9.63;5.33;;;;;;;;;;5115565;28;20217;-73
2023/06/15 04:59:38;;;;;;;8.60;4.73;;;;;;;;;;5117055;27;20250;-73
2023/06/15 05:02:07;;;;;;;9.77;5.13;;;;;;;;;;5120474;27;20660;-73
2023/06/15 05:04:35;;;;;;;7.70;5.23;;;;;;;;;;5118646;27;20215;-73
2023/06/15 05:07:04;;;;;;;6.90;4.90;;;;;;;;;;5119191;27;20225;-72
2023/06/15 05:09:32;;;;;;;9.00;5.27;;;;;;;;;;5120633;28;20210;-73
2023/06/15 05:12:02;;;;;;;7.67;4.73;;;;;;;;;;5117892;28;20198;-73
2023/06/15 05:14:30;;;;;;;8.23;5.80;;;;;;;;;;5105144;28;20214;-73
2023/06/15 05:17:03;;;;;;;8.00;5.10;;;;;;;;;;5118138;28;20256;-72
2023/06/15 05:19:31;;;;;;;11.60;5.23;;;;;;;;;;5118582;28;20293;-73
2023/06/15 05:21:59;;;;;;;9.60;4.93;;;;;;;;;;5118161;28;20211;-72
2023/06/15 05:24:28;;;;;;;6.80;4.93;;;;;;;;;;5117995;28;20234;-72
2023/06/15 05:26:56;;;;;;;7.37;5.23;;;;;;;;;;5117553;28;20227;-73
2023/06/15 05:29:26;;;;;;;10.27;6.27;;;;;;;;;;5120176;28;20196;-72
2023/06/15 05:31:55;;;;;;;7.60;5.10;;;;;;;;;;5117579;28;20201;-72
2023/06/15 05:34:23;;;;;;;8.87;5.13;;;;;;;;;;5118632;28;20233;-73
2023/06/15 05:36:51;;;;;;;9.07;5.40;;;;;;;;;;5118895;28;20301;-72
2023/06/15 05:39:25;;;;;;;8.97;5.23;;;;;;;;;;5117993;28;20237;-73
2023/06/15 05:41:53;;;;;;;6.33;4.87;;;;;;;;;;5119360;28;20193;-73
2023/06/15 05:44:22;;;;;;;6.80;4.43;;;;;;;;;;5120476;28;20230;-73
2023/06/15 05:46:52;;;;;;;5.87;4.50;;;;;;;;;;5117509;28;20309;-72
2023/06/15 05:49:21;;;;;;;6.30;4.17;;;;;;;;;;5110126;28;20576;-73
2023/06/15 05:51:49;;;;;;;6.97;5.40;;;;;;;;;;5117023;28;20304;-73
2023/06/15 05:54:18;;;;;;;7.93;5.00;;;;;;;;;;5120989;28;20289;-73
2023/06/15 05:56:46;;;;;;;6.10;4.50;;;;;;;;;;5116686;28;20269;-67
2023/06/15 05:59:14;;;;;;;5.97;3.80;;;;;;;;;;5117450;28;20199;-67
2023/06/15 06:02:00;;;;;;;8.37;3.80;;;;;;;;;;5121816;28;20285;-67
2023/06/15 06:04:29;;;;;;;4.60;4.07;;;;;;;;;;5138601;27;20317;-67
2023/06/15 06:06:57;;;;;;;5.90;3.70;;;;;;;;;;5136139;27;20310;-67
2023/06/15 06:09:26;;;;;;;5.50;3.57;;;;;;;;;;5117965;28;20218;-67
2023/06/15 06:11:54;;;;;;;4.70;3.70;;;;;;;;;;5117743;28;20745;-67
2023/06/15 06:14:23;;;;;;;3.77;3.43;;;;;;;;;;5122746;28;20662;-64
2023/06/15 06:16:51;;;;;;;7.87;3.77;;;;;;;;;;5125428;28;20231;-64
2023/06/15 06:19:22;;;;;;;5.67;3.60;;;;;;;;;;5119814;28;20265;-65
2023/06/15 06:21:50;;;;;;;5.93;3.87;;;;;;;;;;5118636;28;20202;-65
2023/06/15 06:24:18;;;;;;;8.47;3.80;;;;;;;;;;5117101;28;20293;-66
2023/06/15 06:26:50;;;;;;;4.50;3.60;;;;;;;;;;5123646;27;20223;-66
2023/06/15 06:29:18;;;;;;;6.80;3.80;;;;;;;;;;5119064;28;20295;-66
2023/06/15 06:31:46;;;;;;;5.13;3.50;;;;;;;;;;5121352;28;20205;-66
2023/06/15 06:34:14;;;;;;;4.60;3.70;;;;;;;;;;5121166;28;20235;-66
2023/06/15 06:36:44;;;;;;;8.20;3.60;;;;;;;;;;5121186;28;20778;-66
2023/06/15 06:39:12;;;;;;;5.77;3.63;;;;;;;;;;5121184;27;20665;-72
2023/06/15 06:41:40;;;;;;;8.43;3.60;;;;;;;;;;5123429;27;20205;-72
2023/06/15 06:44:09;;;;;;;3.73;3.37;;;;;;;;;;5119526;27;20235;-72
2023/06/15 06:46:45;;;;;;;4.53;3.50;;;;;;;;;;5120879;27;20212;-71
2023/06/15 06:49:13;;;;;;;6.47;3.90;;;;;;;;;;5121761;27;20208;-72
2023/06/15 06:51:42;;;;;;;5.60;3.67;;;;;;;;;;5120893;28;20204;-70
2023/06/15 06:54:11;;;;;;;6.40;4.03;;;;;;;;;;5121849;27;20232;-68
2023/06/15 06:56:39;;;;;;;5.00;4.23;;;;;;;;;;5120307;28;20217;-71
2023/06/15 06:59:07;;;;;;;4.80;4.00;;;;;;;;;;5120685;28;20290;-72
2023/06/15 07:01:35;;;;;;;7.03;4.23;;;;;;;;;;5120507;28;20209;-69
2023/06/15 07:04:04;;;;;;;7.93;3.80;;;;;;;;;;5120677;28;20215;-71
2023/06/15 07:06:32;;;;;;;6.47;4.90;;;;;;;;;;5122904;27;20224;-68
2023/06/15 07:09:00;;;;;;;5.17;3.97;;;;;;;;;;5119867;28;20201;-70
2023/06/15 07:11:30;;;;;;;6.77;3.90;;;;;;;;;;5120924;27;20672;-70
2023/06/15 07:14:00;;;;;;;3.83;3.53;;;;;;;;;;5124137;27;20664;-70
2023/06/15 07:16:28;;;;;;;4.67;4.10;;;;;;;;;;5117741;27;20317;-67
2023/06/15 07:18:56;;;;;;;7.63;3.70;;;;;;;;;;5122886;27;20748;-68
2023/06/15 07:21:25;;;;;;;4.10;3.60;;;;;;;;;;5119688;28;20634;-69
2023/06/15 07:23:53;;;;;;;7.07;4.10;;;;;;;;;;5119986;27;20206;-69
2023/06/15 07:26:22;;;;;;;4.47;3.80;;;;;;;;;;5117417;28;20256;-69
2023/06/15 07:28:51;;;;;;;7.73;4.00;;;;;;;;;;5121131;27;20203;-71
2023/06/15 07:31:19;;;;;;;8.17;4.30;;;;;;;;;;5119804;28;20213;-72
2023/06/15 07:33:47;;;;;;;8.93;4.00;;;;;;;;;;5115703;28;20265;-71
2023/06/15 07:36:16;;;;;;;5.63;4.03;;;;;;;;;;5127215;27;20645;-72
2023/06/15 07:38:44;;;;;;;5.77;4.03;;;;;;;;;;5140678;27;20210;-72
2023/06/15 07:41:12;;;;;;;4.27;3.73;;;;;;;;;;5140384;27;20618;-69
2023/06/15 07:43:40;;;;;;;4.13;3.60;;;;;;;;;;5140528;27;20208;-72
2023/06/15 07:46:10;;;;;;;5.60;3.77;;;;;;;;;;5140093;27;20236;-73
2023/06/15 07:48:38;;;;;;;5.13;3.50;;;;;;;;;;5140295;27;20201;-73
2023/06/15 07:51:06;;;;;;;6.17;3.60;;;;;;;;;;5139975;27;20599;-72
2023/06/15 07:53:34;;;;;;;4.07;3.67;;;;;;;;;;5139858;27;20304;-73
2023/06/15 07:56:02;;;;;;;7.70;3.93;;;;;;;;;;5127532;27;20257;-73
2023/06/15 07:58:30;;;;;;;9.23;3.93;;;;;;;;;;5112470;28;20209;-73
2023/06/15 08:00:59;;;;;;;4.73;3.53;;;;;;;;;;5119445;28;20211;-72
2023/06/15 08:03:28;;;;;;;4.87;3.70;;;;;;;;;;5119640;28;20208;-72
2023/06/15 08:05:56;;;;;;;5.80;3.70;;;;;;;;;;5119226;28;20870;-73
2023/06/15 08:08:24;;;;;;;3.60;3.17;;;;;;;;;;5119302;28;20211;-73
2023/06/15 08:10:53;;;;;;;4.23;3.83;;;;;;;;;;5126884;27;20201;-73
2023/06/15 08:13:22;;;;;;;3.77;3.47;;;;;;;;;;5140191;27;20240;-72
2023/06/15 08:15:50;;;;;;;4.23;3.90;;;;;;;;;;5133030;27;20275;-72
2023/06/15 08:18:18;;;;;;;5.60;3.60;;;;;;;;;;5119779;28;20249;-72
2023/06/15 08:20:48;;;;;;;11.00;4.20;;;;;;;;;;5119904;28;20238;-73
2023/06/15 08:23:16;;;;;;;4.73;4.27;;;;;;;;;;5119519;28;20220;-72
2023/06/15 08:25:46;;;;;;;7.00;4.03;;;;;;;;;;5119359;28;20243;-73
2023/06/15 08:28:14;;;;;;;8.47;3.73;;;;;;;;;;5119157;28;20299;-73
2023/06/15 08:30:42;;;;;;;4.77;3.57;;;;;;;;;;5119310;28;20220;-72
2023/06/15 08:33:10;;;;;;;4.67;3.37;;;;;;;;;;5118973;28;20208;-73
2023/06/15 08:35:39;;;;;;;4.40;3.67;;;;;;;;;;5119224;28;20317;-73
2023/06/15 08:38:08;;;;;;;5.17;3.50;;;;;;;;;;5118829;28;20236;-73
2023/06/15 08:40:36;;;;;;;5.03;3.60;;;;;;;;;;5119157;28;20210;-72
2023/06/15 08:43:06;;;;;;;3.80;3.50;;;;;;;;;;5119149;28;20206;-74
2023/06/15 08:45:39;;;;;;;5.77;3.67;;;;;;;;;;5119023;28;20224;-72
2023/06/15 08:48:08;;;;;;;3.83;3.53;;;;;;;;;;5118429;28;20224;-74
2023/06/15 08:50:38;;;;;;;4.53;3.73;;;;;;;;;;5119029;28;20210;-74
2023/06/15 08:53:06;;;;;;;6.27;4.27;;;;;;;;;;5118709;28;20238;-74
2023/06/15 08:55:36;;;;;;;5.40;3.63;;;;;;;;;;5118723;28;20280;-72
2023/06/15 08:58:07;;;;;;;5.13;3.43;;;;;;;;;;5118990;28;20206;-74
2023/06/15 09:00:37;;;;;;;4.10;3.70;;;;;;;;;;5118589;28;20695;-73
2023/06/15 09:03:08;;;;;;;4.60;4.00;;;;;;;;;;5118792;28;20291;-74
2023/06/15 09:05:36;;;;;;;5.13;3.90;;;;;;;;;;5118651;28;20289;-74
2023/06/15 09:08:05;;;;;;;5.67;3.73;;;;;;;;;;5118491;28;20230;-74
2023/06/15 09:10:39;;;;;;;5.50;3.63;;;;;;;;;;5118450;28;20671;-74
2023/06/15 09:13:14;;;;;;;6.13;4.00;;;;;;;;;;5119070;28;20217;-74
2023/06/15 09:15:43;;;;;;;6.07;4.03;;;;;;;;;;5118194;28;20225;-73
2023/06/15 09:18:13;;;;;;;4.60;3.70;;;;;;;;;;5118255;28;20205;-73
2023/06/15 09:20:41;;;;;;;5.50;3.20;;;;;;;;;;5118449;28;20222;-75
2023/06/15 09:23:10;;;;;;;11.80;3.97;;;;;;;;;;5118116;28;20288;-73
2023/06/15 09:25:41;;;;;;;5.67;3.67;;;;;;;;;;5118182;28;20236;-72
2023/06/15 09:28:09;;;;;;;4.90;3.70;;;;;;;;;;5118494;28;20230;-73
2023/06/15 09:30:38;;;;;;;6.17;3.77;;;;;;;;;;5118323;28;20206;-74
2023/06/15 09:33:12;;;;;;;10.47;6.03;;;;;;;;;;5118369;28;20202;-74
2023/06/15 09:35:55;;;;;;;4.20;3.80;;;;;;;;;;5118506;28;20269;-74
2023/06/15 09:38:23;;;;;;;4.63;4.00;;;;;;;;;;5118416;28;20302;-73
2023/06/15 09:40:53;;;;;;;4.27;3.97;;;;;;;;;;5118195;28;20216;-75
2023/06/15 09:43:21;;;;;;;7.03;4.03;;;;;;;;;;5118084;28;20218;-73
2023/06/15 09:45:50;;;;;;;5.83;3.90;;;;;;;;;;5117657;28;20714;-73
2023/06/15 09:48:18;;;;;;;3.70;3.40;;;;;;;;;;5118311;28;20249;-74
2023/06/15 09:50:49;;;;;;;4.10;3.70;;;;;;;;;;5118156;28;20212;-74
2023/06/15 09:53:18;;;;;;;7.90;4.03;;;;;;;;;;5118136;28;20237;-73
2023/06/15 09:55:46;;;;;;;4.73;3.90;;;;;;;;;;5118064;28;20272;-74
2023/06/15 09:58:16;;;;;;;7.87;3.60;;;;;;;;;;5118323;28;20208;-73
2023/06/15 10:00:44;;;;;;;4.90;4.50;;;;;;;;;;5121211;28;20213;-73
2023/06/15 10:03:16;;;;;;;4.73;3.70;;;;;;;;;;5122337;28;20209;-74
2023/06/15 10:05:46;;;;;;;5.50;3.83;;;;;;;;;;5121790;28;20229;-74
2023/06/15 10:08:16;;;;;;;4.77;3.63;;;;;;;;;;5121984;28;20292;-72
2023/06/15 10:10:45;;;;;;;5.33;3.77;;;;;;;;;;5108864;28;20291;-74
2023/06/15 10:13:14;;;;;;;4.93;4.23;;;;;;;;;;5121706;28;20270;-74
2023/06/15 10:15:48;;;;;;;4.83;4.13;;;;;;;;;;5119000;28;20215;-74
2023/06/15 10:18:17;;;;;;;7.53;4.40;;;;;;;;;;5114449;28;20563;-72
2023/06/15 10:20:45;;;;;;;4.33;3.93;;;;;;;;;;5121715;28;20634;-73
2023/06/15 10:23:15;;;;;;;6.70;3.80;;;;;;;;;;5121484;28;20232;-73
2023/06/15 10:25:47;;;;;;;6.63;3.63;;;;;;;;;;5121445;28;20232;-74
2023/06/15 10:28:16;;;;;;;6.53;3.23;;;;;;;;;;5121693;28;20205;-74
2023/06/15 10:30:50;;;;;;;6.37;3.50;;;;;;;;;;5121219;27;20206;-75
2023/06/15 10:33:22;;;;;;;5.97;3.57;;;;;;;;;;5121350;28;20696;-74
2023/06/15 10:35:54;;;;;;;4.60;3.53;;;;;;;;;;5121636;28;20267;-74
2023/06/15 10:38:27;;;;;;;7.47;3.77;;;;;;;;;;5121192;28;20262;-74
2023/06/15 10:40:56;;;;;;;4.07;3.67;;;;;;;;;;5121346;28;20211;-74
2023/06/15 10:43:26;;;;;;;4.43;3.70;;;;;;;;;;5121115;28;20221;-73
2023/06/15 10:45:56;;;;;;;5.03;4.07;;;;;;;;;;5120734;28;20256;-74
2023/06/15 10:48:26;;;;;;;4.70;3.80;;;;;;;;;;5121426;28;20205;-74
2023/06/15 10:51:02;;;;;;;5.60;4.13;;;;;;;;;;5121298;28;20295;-74
2023/06/15 10:53:35;;;;;;;3.50;3.20;;;;;;;;;;5121040;28;20233;-74
2023/06/15 10:56:09;;;;;;;5.37;3.73;;;;;;;;;;5120823;28;20247;-72
2023/06/15 10:58:52;;;;;;;4.23;3.20;;;;;;;;;;5121188;28;20290;-65
2023/06/15 11:01:23;;;;;;;7.30;3.80;;;;;;;;;;5120546;28;20211;-65
2023/06/15 11:03:55;;;;;;;4.63;3.50;;;;;;;;;;5120970;28;20211;-66
2023/06/15 11:06:30;;;;;;;4.20;3.30;;;;;;;;;;5120852;28;20242;-67
2023/06/15 11:09:02;;;;;;;5.03;3.67;;;;;;;;;;5120800;28;20256;-66
2023/06/15 11:11:34;;;;;;;3.83;3.43;;;;;;;;;;5119553;28;20655;-65
2023/06/15 11:14:03;;;;;;;4.03;3.47;;;;;;;;;;5120905;28;20212;-64
2023/06/15 11:16:33;;;;;;;4.97;4.27;;;;;;;;;;5106022;28;20221;-65
2023/06/15 11:19:20;;;;;;;4.27;3.40;;;;;;;;;;5118980;27;20229;-64
2023/06/15 11:21:59;;;;;;;6.17;3.80;;;;;;;;;;5128622;27;20694;-64
2023/06/15 11:24:29;;;;;;;5.87;3.53;;;;;;;;;;5128084;27;20257;-63
2023/06/15 11:27:02;;;;;;;8.00;3.60;;;;;;;;;;5129639;27;20229;-65
2023/06/15 11:29:33;;;;;;;4.90;4.00;;;;;;;;;;5129384;27;20196;-64
2023/06/15 11:32:03;;;;;;;7.47;3.87;;;;;;;;;;5127905;27;20198;-66
2023/06/15 11:34:31;;;;;;;8.00;3.80;;;;;;;;;;5125959;27;20216;-65
2023/06/15 11:37:00;;;;;;;4.97;3.50;;;;;;;;;;5126840;27;20210;-63
2023/06/15 11:39:30;;;;;;;4.23;3.70;;;;;;;;;;5121494;27;20277;-63
2023/06/15 11:41:58;;;;;;;3.83;3.53;;;;;;;;;;5120615;27;20287;-64
2023/06/15 11:44:27;;;;;;;4.27;3.93;;;;;;;;;;5140752;27;20686;-64
2023/06/15 11:46:56;;;;;;;4.30;3.90;;;;;;;;;;5140109;27;20261;-64
2023/06/15 11:49:26;;;;;;;6.37;4.53;;;;;;;;;;5140803;27;20300;-65
2023/06/15 11:51:57;;;;;;;4.80;4.30;;;;;;;;;;5140355;27;20267;-65
2023/06/15 11:54:26;;;;;;;6.40;4.37;;;;;;;;;;5140413;27;20292;-65
2023/06/15 11:57:15;;;;;;;6.77;3.93;;;;;;;;;;5112894;27;20251;-65
2023/06/15 11:59:43;;;;;;;5.43;3.80;;;;;;;;;;5120719;28;20202;-65
2023/06/15 12:02:12;;;;;;;7.27;4.03;;;;;;;;;;5119866;28;20241;-65
2023/06/15 12:04:42;;;;;;;6.63;3.70;;;;;;;;;;5120157;28;20221;-64
2023/06/15 12:07:10;;;;;;;6.80;4.07;;;;;;;;;;5128048;27;20246;-64
2023/06/15 12:09:59;;;;;;;5.80;4.23;;;;;;;;;;5125656;27;20197;-66
2023/06/15 12:12:31;;;;;;;5.10;4.10;;;;;;;;;;5129163;27;20269;-65
2023/06/15 12:15:00;;;;;;;4.37;3.57;;;;;;;;;;5130649;27;20258;-64
2023/06/15 12:17:31;;;;;;;5.10;3.50;;;;;;;;;;5129130;27;20605;-66
2023/06/15 12:20:01;;;;;;;7.87;4.17;;;;;;;;;;5128264;27;20203;-65
2023/06/15 12:22:34;;;;;;;4.63;4.20;;;;;;;;;;5130405;27;20232;-64
2023/06/15 12:25:05;;;;;;;7.43;4.20;;;;;;;;;;5127118;27;20194;-65
2023/06/15 12:27:33;;;;;;;4.20;3.80;;;;;;;;;;5127685;27;20232;-65
2023/06/15 12:30:12;;;;;;;4.60;3.60;;;;;;;;;;5109128;28;20689;-66
2023/06/15 12:32:44;;;;;;;4.73;4.17;;;;;;;;;;5114511;28;20230;-64
2023/06/15 12:35:27;;;;;;;4.33;3.83;;;;;;;;;;5115381;28;20257;-63
2023/06/15 12:37:56;;;;;;;4.60;4.10;;;;;;;;;;5109068;28;20195;-64
2023/06/15 12:40:24;;;;;;;4.33;3.93;;;;;;;;;;5118830;28;20209;-65
2023/06/15 12:42:57;;;;;;;3.63;3.30;;;;;;;;;;5114936;28;20198;-68
2023/06/15 12:45:25;;;;;;;6.33;3.87;;;;;;;;;;5118534;28;20217;-65
2023/06/15 12:47:54;;;;;;;4.20;3.80;;;;;;;;;;5118128;28;20282;-64
2023/06/15 12:50:22;;;;;;;7.73;4.60;;;;;;;;;;5118654;28;20211;-63
2023/06/15 12:52:55;;;;;;;4.27;3.77;;;;;;;;;;5106653;28;20241;-64
2023/06/15 12:55:23;;;;;;;4.80;4.00;;;;;;;;;;5127222;27;20566;-69
2023/06/15 12:57:51;;;;;;;4.13;3.73;;;;;;;;;;5119348;27;20289;-68
2023/06/15 13:00:24;;;;;;;5.97;4.10;;;;;;;;;;5118160;28;20272;-69
2023/06/15 13:02:53;;;;;;;4.07;3.50;;;;;;;;;;5117919;28;20280;-70
2023/06/15 13:05:22;;;;;;;6.93;3.70;;;;;;;;;;5118267;28;20250;-68
2023/06/15 13:07:51;;;;;;;4.37;3.97;;;;;;;;;;5118094;28;20721;-68
2023/06/15 13:10:21;;;;;;;4.47;3.63;;;;;;;;;;5110145;28;20207;-70
2023/06/15 13:12:49;;;;;;;5.00;3.63;;;;;;;;;;5117878;28;20235;-71
2023/06/15 13:15:18;;;;;;;5.50;4.07;;;;;;;;;;5118464;28;20278;-70
2023/06/15 13:17:48;;;;;;;4.30;3.90;;;;;;;;;;5118142;28;20229;-69
2023/06/15 13:20:17;;;;;;;5.15;3.42;;;;;;;;;;5117943;28;20209;-70
2023/06/15 13:22:47;;;;;;;5.88;3.75;;;;;;;;;;5116149;28;20213;-69
2023/06/15 13:25:16;;;;;;;4.30;3.90;;;;;;;;;;5112906;28;20222;-70
2023/06/15 13:27:46;;;;;;;5.90;3.72;;;;;;;;;;5115207;28;20224;-70
2023/06/15 13:30:16;;;;;;;4.07;3.33;;;;;;;;;;5117885;28;20221;-69
2023/06/15 13:32:46;;;;;;;5.82;3.95;;;;;;;;;;5117758;28;20289;-71
2023/06/15 13:35:15;;;;;;;4.22;3.83;;;;;;;;;;5116918;28;20224;-69
2023/06/15 13:37:48;;;;;;;5.32;3.92;;;;;;;;;;5118134;28;20210;-69
2023/06/15 13:40:17;;;;;;;3.80;3.50;;;;;;;;;;5117877;28;20715;-68
2023/06/15 13:42:47;;;;;;;7.18;4.55;;;;;;;;;;5117825;28;20211;-68
2023/06/15 13:45:18;;;;;;;5.05;4.07;;;;;;;;;;5107795;28;20223;-70
2023/06/15 13:47:47;;;;;;;3.78;3.40;;;;;;;;;;5117367;28;20223;-69
2023/06/15 13:50:17;;;;;;;4.00;3.60;;;;;;;;;;5117622;28;20208;-69
2023/06/15 13:52:48;;;;;;;5.28;3.63;;;;;;;;;;5117457;28;20210;-70
2023/06/15 13:55:17;;;;;;;5.15;4.25;;;;;;;;;;5117481;28;20224;-71
2023/06/15 13:57:47;;;;;;;5.63;3.88;;;;;;;;;;5113363;28;20214;-72
2023/06/15 14:00:16;;;;;;;4.25;3.95;;;;;;;;;;5117577;28;20205;-70
2023/06/15 14:02:46;;;;;;;5.63;3.88;;;;;;;;;;5117233;28;20243;-70
2023/06/15 14:05:14;;;;;;;6.60;4.28;;;;;;;;;;5117476;28;20266;-70
2023/06/15 14:07:43;;;;;;;6.13;4.55;;;;;;;;;;5118474;28;20201;-72
2023/06/15 14:10:11;;;;;;;4.93;4.00;;;;;;;;;;5117135;28;20234;-72
2023/06/15 14:12:39;;;;;;;8.25;5.13;;;;;;;;;;5119441;28;20225;-73
2023/06/15 14:15:10;;;;;;;8.55;5.43;;;;;;;;;;5117603;28;20207;-73
2023/06/15 14:17:38;;;;;;;7.15;5.20;;;;;;;;;;5116562;28;20651;-72
2023/06/15 14:20:07;;;;;;;8.70;5.03;;;;;;;;;;5114254;28;20203;-71
2023/06/15 14:22:35;;;;;;;5.55;4.80;;;;;;;;;;5118180;28;20209;-71
2023/06/15 14:25:04;;;;;;;5.10;4.60;;;;;;;;;;5118581;28;20229;-72
2023/06/15 14:27:32;;;;;;;5.82;4.88;;;;;;;;;;5119141;27;20196;-71
2023/06/15 14:30:00;;;;;;;5.18;4.65;;;;;;;;;;5115875;28;20722;-74
2023/06/15 14:32:30;;;;;;;6.43;5.28;;;;;;;;;;5115177;28;20207;-71
2023/06/15 14:34:58;;;;;;;4.40;4.00;;;;;;;;;;5117821;28;20275;-71
2023/06/15 14:37:26;;;;;;;4.57;4.18;;;;;;;;;;5117676;28;20235;-70
2023/06/15 14:39:55;;;;;;;5.57;4.43;;;;;;;;;;5111656;28;20624;-69
2023/06/15 14:42:25;;;;;;;4.72;4.05;;;;;;;;;;5116198;28;20536;-71
2023/06/15 14:44:56;;;;;;;4.65;4.25;;;;;;;;;;5117079;28;20209;-71
2023/06/15 14:47:24;;;;;;;6.43;4.38;;;;;;;;;;5121811;27;20274;-71
2023/06/15 14:49:54;;;;;;;4.40;4.10;;;;;;;;;;5120667;28;20226;-71
2023/06/15 14:52:22;;;;;;;4.10;3.70;;;;;;;;;;5125678;27;20630;-71
2023/06/15 14:54:51;;;;;;;4.40;4.10;;;;;;;;;;5114573;28;20238;-72
2023/06/15 14:57:20;;;;;;;4.55;4.13;;;;;;;;;;5119062;27;20323;-71